createdAt,value
2019-05-18T00:02:04.228Z,15.10
2019-05-18T00:04:33.562Z,15.00
2019-05-18T00:07:02.408Z,15.00
2019-05-18T00:09:32.016Z,15.00
2019-05-18T00:12:01.513Z,15.00
2019-05-18T00:14:30.260Z,15.10
2019-05-18T00:16:59.016Z,15.00
2019-05-18T00:19:27.840Z,14.90
2019-05-18T00:21:56.856Z,14.80
2019-05-18T00:24:25.597Z,14.70
2019-05-18T00:26:54.360Z,14.70
2019-05-18T00:29:23.345Z,14.70
2019-05-18T00:31:52.361Z,14.80
2019-05-18T00:34:21.163Z,14.70
2019-05-18T00:36:49.906Z,14.60
2019-05-18T00:39:18.681Z,14.50
2019-05-18T00:41:47.664Z,14.50
2019-05-18T00:44:16.423Z,14.60
2019-05-18T00:46:45.177Z,14.60
2019-05-18T00:49:13.913Z,14.70
2019-05-18T00:51:43.260Z,14.60
2019-05-18T00:54:12.093Z,14.60
2019-05-18T00:56:41.397Z,14.60
2019-05-18T00:59:15.760Z,14.60
2019-05-18T01:01:41.137Z,14.60
2019-05-18T01:04:09.891Z,14.60
2019-05-18T01:06:38.884Z,14.50
2019-05-18T01:09:07.824Z,14.40
2019-05-18T01:11:36.723Z,14.30
2019-05-18T01:14:05.849Z,14.20
2019-05-18T01:16:34.852Z,14.20
2019-05-18T01:19:03.575Z,14.30
2019-05-18T01:21:32.543Z,14.30
2019-05-18T01:24:01.427Z,14.30
2019-05-18T01:26:30.441Z,14.30
2019-05-18T01:29:03.685Z,14.30
2019-05-18T01:31:32.830Z,14.20
2019-05-18T01:34:01.645Z,14.20
2019-05-18T01:36:30.750Z,14.20
2019-05-18T01:38:59.471Z,14.20
2019-05-18T01:41:28.201Z,14.20
2019-05-18T01:43:57.156Z,14.20
2019-05-18T01:46:25.879Z,14.20
2019-05-18T01:48:54.864Z,14.20
2019-05-18T01:51:23.625Z,14.20
2019-05-18T01:53:52.739Z,14.20
2019-05-18T01:56:21.545Z,14.20
2019-05-18T01:58:50.511Z,14.10
2019-05-18T02:01:19.481Z,14.10
2019-05-18T02:03:48.453Z,14.00
2019-05-18T02:06:17.193Z,14.00
2019-05-18T02:08:46.170Z,14.10
2019-05-18T02:11:14.989Z,14.20
2019-05-18T02:13:43.728Z,14.30
2019-05-18T02:16:12.536Z,14.20
2019-05-18T02:18:41.480Z,14.10
2019-05-18T02:21:10.461Z,14.10
2019-05-18T02:23:39.441Z,14.10
2019-05-18T02:26:08.729Z,14.00
2019-05-18T02:28:37.711Z,14.00
2019-05-18T02:31:06.750Z,13.90
2019-05-18T02:33:35.733Z,13.90
2019-05-18T02:36:04.530Z,14.00
2019-05-18T02:38:33.239Z,14.00
2019-05-18T02:41:02.065Z,14.10
2019-05-18T02:43:31.050Z,14.10
2019-05-18T02:46:00.029Z,14.00
2019-05-18T02:48:28.757Z,14.00
2019-05-18T02:50:57.835Z,14.00
2019-05-18T02:53:26.567Z,13.90
2019-05-18T02:55:55.301Z,13.80
2019-05-18T02:58:24.334Z,13.70
2019-05-18T03:00:53.398Z,13.70
2019-05-18T03:03:22.435Z,13.70
2019-05-18T03:05:51.160Z,13.70
2019-05-18T03:08:20.465Z,13.70
2019-05-18T03:10:49.510Z,13.60
2019-05-18T03:13:18.243Z,13.60
2019-05-18T03:15:46.961Z,13.60
2019-05-18T03:18:15.684Z,13.50
2019-05-18T03:20:44.407Z,13.50
2019-05-18T03:23:13.142Z,13.40
2019-05-18T03:25:41.958Z,13.40
2019-05-18T03:28:10.704Z,13.50
2019-05-18T03:30:39.436Z,13.50
2019-05-18T03:33:08.536Z,13.40
2019-05-18T03:35:37.345Z,13.50
2019-05-18T03:38:06.129Z,13.50
2019-05-18T03:40:34.870Z,13.50
2019-05-18T03:43:03.599Z,13.60
2019-05-18T03:45:32.569Z,13.60
2019-05-18T03:48:01.281Z,13.60
2019-05-18T03:50:30.086Z,13.60
2019-05-18T03:52:59.049Z,13.60
2019-05-18T03:55:28.097Z,13.50
2019-05-18T03:57:57.057Z,13.50
2019-05-18T04:00:25.787Z,13.50
2019-05-18T04:02:54.522Z,13.50
2019-05-18T04:05:23.232Z,13.60
2019-05-18T04:07:52.230Z,13.60
2019-05-18T04:10:27.317Z,13.60
2019-05-18T04:12:56.130Z,13.60
2019-05-18T04:15:25.236Z,13.50
2019-05-18T04:17:53.977Z,13.50
2019-05-18T04:20:22.817Z,13.50
2019-05-18T04:22:51.539Z,13.50
2019-05-18T04:25:20.597Z,13.50
2019-05-18T04:27:49.332Z,13.50
2019-05-18T04:30:18.226Z,13.40
2019-05-18T04:32:46.949Z,13.40
2019-05-18T04:35:16.242Z,13.50
2019-05-18T04:37:44.977Z,13.50
2019-05-18T04:40:14.159Z,13.40
2019-05-18T04:42:43.132Z,13.50
2019-05-18T04:45:12.378Z,13.50
2019-05-18T04:47:41.118Z,13.50
2019-05-18T04:50:10.389Z,13.40
2019-05-18T04:52:39.362Z,13.50
2019-05-18T04:55:08.189Z,13.50
2019-05-18T04:57:37.226Z,13.50
2019-05-18T05:00:06.765Z,13.60
2019-05-18T05:02:35.502Z,13.60
2019-05-18T05:05:05.100Z,13.60
2019-05-18T05:07:33.838Z,13.60
2019-05-18T05:10:04.693Z,13.60
2019-05-18T05:12:33.739Z,13.50
2019-05-18T05:15:02.800Z,13.60
2019-05-18T05:17:31.523Z,13.60
2019-05-18T05:20:00.257Z,13.60
2019-05-18T05:22:28.971Z,13.70
2019-05-18T05:24:57.935Z,13.70
2019-05-18T05:27:27.182Z,13.70
2019-05-18T05:29:56.445Z,13.70
2019-05-18T05:32:25.403Z,13.70
2019-05-18T05:34:54.391Z,13.70
2019-05-18T05:37:23.097Z,13.70
2019-05-18T05:39:51.853Z,13.60
2019-05-18T05:42:20.585Z,13.70
2019-05-18T05:44:49.436Z,13.70
2019-05-18T05:47:18.401Z,13.80
2019-05-18T05:49:47.492Z,13.90
2019-05-18T05:52:16.740Z,13.90
2019-05-18T05:54:45.748Z,14.00
2019-05-18T05:57:14.483Z,14.10
2019-05-18T05:59:43.460Z,14.00
2019-05-18T06:02:12.202Z,14.10
2019-05-18T06:04:41.671Z,14.20
2019-05-18T06:07:10.697Z,14.40
2019-05-18T06:09:39.672Z,14.40
2019-05-18T06:12:08.396Z,14.50
2019-05-18T06:14:37.131Z,14.50
2019-05-18T06:17:08.383Z,14.60
2019-05-18T06:19:37.087Z,14.70
2019-05-18T06:22:05.812Z,14.70
2019-05-18T06:24:34.772Z,14.80
2019-05-18T06:27:03.528Z,14.80
2019-05-18T06:29:32.277Z,14.80
2019-05-18T06:32:01.005Z,14.90
2019-05-18T06:34:29.757Z,14.90
2019-05-18T06:36:58.734Z,14.90
2019-05-18T06:39:27.699Z,14.90
2019-05-18T06:41:56.693Z,14.90
2019-05-18T06:44:25.853Z,14.90
2019-05-18T06:46:54.812Z,15.00
2019-05-18T06:49:23.557Z,15.10
2019-05-18T06:51:52.343Z,15.20
2019-05-18T06:54:21.144Z,15.30
2019-05-18T06:56:50.771Z,15.40
2019-05-18T06:59:20.484Z,15.50
2019-05-18T07:01:49.211Z,15.60
2019-05-18T07:04:17.951Z,15.70
2019-05-18T07:06:47.425Z,15.70
2019-05-18T07:09:16.232Z,15.90
2019-05-18T07:11:44.979Z,16.00
2019-05-18T07:14:24.833Z,16.10
2019-05-18T07:16:44.138Z,16.20
2019-05-18T07:19:12.908Z,16.30
2019-05-18T07:21:41.637Z,16.30
2019-05-18T07:24:10.369Z,16.30
2019-05-18T07:26:39.112Z,16.30
2019-05-18T07:29:08.148Z,16.50
2019-05-18T07:31:36.888Z,16.70
2019-05-18T07:34:06.042Z,17.00
2019-05-18T07:36:35.100Z,17.20
2019-05-18T07:39:06.169Z,17.50
2019-05-18T07:41:46.365Z,18.00
2019-05-18T07:44:05.585Z,18.70
2019-05-18T07:46:34.344Z,19.50
2019-05-18T07:49:03.128Z,20.10
2019-05-18T07:51:36.958Z,20.70
2019-05-18T07:54:02.565Z,21.10
2019-05-18T07:56:31.591Z,21.30
2019-05-18T07:59:00.336Z,21.40
2019-05-18T08:01:29.336Z,21.50
2019-05-18T08:03:58.340Z,21.70
2019-05-18T08:06:27.071Z,21.80
2019-05-18T08:09:09.068Z,22.00
2019-05-18T08:11:37.833Z,21.90
2019-05-18T08:14:06.684Z,21.80
2019-05-18T08:16:35.426Z,21.80
2019-05-18T08:19:04.227Z,21.70
2019-05-18T08:21:33.059Z,21.90
2019-05-18T08:24:02.060Z,22.00
2019-05-18T08:26:31.134Z,22.00
2019-05-18T08:28:59.878Z,21.90
2019-05-18T08:31:29.109Z,21.80
2019-05-18T08:33:57.861Z,21.50
2019-05-18T08:36:26.591Z,21.20
2019-05-18T08:38:56.125Z,21.00
2019-05-18T08:41:25.140Z,21.00
2019-05-18T08:43:54.527Z,21.00
2019-05-18T08:46:23.581Z,21.00
2019-05-18T08:48:52.338Z,21.00
2019-05-18T08:51:21.421Z,21.00
2019-05-18T08:53:53.158Z,21.00
2019-05-18T08:56:22.707Z,21.00
2019-05-18T08:58:51.934Z,21.00
2019-05-18T09:01:21.587Z,21.00
2019-05-18T09:03:50.866Z,20.90
2019-05-18T09:06:20.050Z,21.00
2019-05-18T09:08:58.098Z,20.90
2019-05-18T09:11:27.181Z,20.80
2019-05-18T09:13:55.939Z,20.70
2019-05-18T09:16:24.748Z,20.70
2019-05-18T09:18:53.491Z,20.70
2019-05-18T09:21:22.732Z,20.70
2019-05-18T09:23:51.763Z,20.70
2019-05-18T09:26:20.567Z,20.70
2019-05-18T09:28:49.481Z,20.80
2019-05-18T09:31:19.134Z,20.80
2019-05-18T09:33:48.201Z,20.70
2019-05-18T09:36:17.299Z,20.70
2019-05-18T09:38:46.105Z,20.70
2019-05-18T09:41:15.119Z,20.80
2019-05-18T09:43:44.104Z,20.90
2019-05-18T09:46:12.917Z,20.90
2019-05-18T09:48:42.917Z,21.00
2019-05-18T09:51:11.929Z,21.10
2019-05-18T09:53:51.161Z,21.20
2019-05-18T09:56:11.364Z,21.20
2019-05-18T09:58:40.345Z,21.20
2019-05-18T10:01:09.333Z,21.20
2019-05-18T10:03:38.331Z,21.20
2019-05-18T10:06:07.636Z,21.30
2019-05-18T10:08:38.928Z,21.30
2019-05-18T10:11:08.019Z,21.30
2019-05-18T10:13:41.860Z,21.60
2019-05-18T10:16:11.034Z,21.80
2019-05-18T10:18:39.751Z,21.70
2019-05-18T10:21:08.699Z,21.60
2019-05-18T10:23:40.368Z,21.60
2019-05-18T10:26:08.569Z,21.60
2019-05-18T10:28:37.327Z,21.70
2019-05-18T10:31:06.337Z,21.70
2019-05-18T10:33:35.312Z,21.70
2019-05-18T10:36:05.140Z,21.90
2019-05-18T10:38:33.885Z,22.10
2019-05-18T10:41:02.771Z,22.20
2019-05-18T10:43:32.251Z,22.20
2019-05-18T10:46:01.156Z,22.10
2019-05-18T10:48:29.945Z,22.10
2019-05-18T10:50:58.675Z,22.30
2019-05-18T10:53:28.993Z,22.20
2019-05-18T10:55:58.240Z,22.20
2019-05-18T10:58:27.208Z,22.30
2019-05-18T11:00:56.047Z,22.40
2019-05-18T11:03:25.029Z,22.50
2019-05-18T11:05:53.812Z,22.90
2019-05-18T11:08:22.621Z,23.10
2019-05-18T11:10:51.364Z,23.00
2019-05-18T11:13:20.325Z,22.90
2019-05-18T11:15:49.307Z,22.80
2019-05-18T11:18:18.051Z,22.60
2019-05-18T11:20:47.053Z,22.60
2019-05-18T11:23:15.795Z,22.40
2019-05-18T11:25:45.043Z,22.30
2019-05-18T11:28:13.840Z,22.30
2019-05-18T11:30:42.831Z,22.30
2019-05-18T11:33:11.584Z,22.50
2019-05-18T11:35:40.401Z,22.50
2019-05-18T11:38:09.443Z,22.70
2019-05-18T11:40:38.427Z,22.40
2019-05-18T11:43:07.167Z,22.40
2019-05-18T11:45:36.063Z,22.30
2019-05-18T11:48:05.210Z,22.30
2019-05-18T11:50:34.241Z,22.30
2019-05-18T11:53:03.045Z,22.20
2019-05-18T11:55:31.881Z,22.20
2019-05-18T11:58:00.601Z,22.10
2019-05-18T12:00:29.872Z,22.20
2019-05-18T12:02:58.669Z,22.40
2019-05-18T12:05:27.414Z,22.50
2019-05-18T12:07:56.175Z,22.50
2019-05-18T12:10:24.994Z,22.50
2019-05-18T12:12:53.748Z,22.80
2019-05-18T12:15:23.057Z,22.70
2019-05-18T12:17:51.797Z,22.60
2019-05-18T12:20:21.082Z,22.60
2019-05-18T12:22:50.185Z,22.60
2019-05-18T12:25:19.818Z,22.80
2019-05-18T12:27:48.685Z,22.80
2019-05-18T12:30:18.104Z,22.60
2019-05-18T12:32:46.867Z,22.60
2019-05-18T12:35:16.228Z,22.50
2019-05-18T12:37:44.989Z,22.50
2019-05-18T12:40:17.647Z,22.40
2019-05-18T12:42:46.395Z,22.30
2019-05-18T12:45:15.893Z,22.30
2019-05-18T12:47:44.795Z,22.30
2019-05-18T12:50:14.829Z,22.40
2019-05-18T12:52:43.909Z,22.30
2019-05-18T12:55:13.181Z,22.10
2019-05-18T12:57:41.922Z,22.10
2019-05-18T13:00:11.683Z,22.20
2019-05-18T13:02:40.767Z,22.20
2019-05-18T13:05:10.051Z,22.20
2019-05-18T13:07:38.945Z,22.20
2019-05-18T13:10:08.236Z,22.20
2019-05-18T13:12:37.005Z,22.30
2019-05-18T13:15:06.952Z,22.70
2019-05-18T13:17:35.694Z,22.80
2019-05-18T13:20:05.954Z,22.70
2019-05-18T13:22:34.677Z,22.60
2019-05-18T13:25:03.607Z,22.40
2019-05-18T13:27:39.627Z,22.40
2019-05-18T13:30:04.312Z,22.40
2019-05-18T13:32:33.234Z,22.30
2019-05-18T13:35:02.230Z,22.30
2019-05-18T13:37:31.348Z,22.10
2019-05-18T13:40:00.082Z,22.10
2019-05-18T13:42:28.848Z,22.00
2019-05-18T13:44:57.876Z,22.00
2019-05-18T13:47:26.854Z,21.90
2019-05-18T13:49:58.261Z,21.90
2019-05-18T13:52:26.069Z,22.00
2019-05-18T13:55:03.949Z,22.00
2019-05-18T13:57:25.525Z,21.90
2019-05-18T13:59:54.332Z,22.00
2019-05-18T14:02:23.065Z,21.90
2019-05-18T14:04:51.862Z,21.90
2019-05-18T14:07:20.660Z,21.90
2019-05-18T14:09:49.388Z,21.90
2019-05-18T14:12:18.128Z,22.00
2019-05-18T14:14:46.861Z,21.90
2019-05-18T14:17:15.593Z,21.80
2019-05-18T14:19:44.337Z,21.60
2019-05-18T14:22:13.384Z,21.50
2019-05-18T14:24:42.147Z,21.40
2019-05-18T14:27:11.150Z,21.10
2019-05-18T14:29:39.878Z,21.00
2019-05-18T14:32:10.979Z,21.00
2019-05-18T14:34:39.302Z,21.00
2019-05-18T14:37:08.043Z,20.90
2019-05-18T14:39:36.821Z,20.90
2019-05-18T14:42:05.724Z,20.90
2019-05-18T14:44:34.717Z,20.90
2019-05-18T14:47:03.515Z,20.90
2019-05-18T14:49:32.357Z,20.90
2019-05-18T14:52:01.387Z,20.90
2019-05-18T14:54:30.127Z,20.80
2019-05-18T14:56:59.102Z,20.80
2019-05-18T14:59:28.266Z,20.80
2019-05-18T15:01:57.082Z,20.80
2019-05-18T15:04:26.080Z,20.90
2019-05-18T15:06:56.271Z,20.90
2019-05-18T15:09:25.215Z,20.90
2019-05-18T15:11:54.354Z,20.90
2019-05-18T15:14:23.074Z,20.90
2019-05-18T15:16:53.051Z,20.90
2019-05-18T15:19:22.110Z,20.90
2019-05-18T15:21:51.085Z,20.90
2019-05-18T15:24:20.331Z,20.80
2019-05-18T15:26:49.245Z,20.80
2019-05-18T15:29:18.292Z,20.90
2019-05-18T15:31:47.104Z,21.00
2019-05-18T15:34:15.847Z,21.00
2019-05-18T15:36:44.581Z,21.00
2019-05-18T15:39:13.577Z,21.00
2019-05-18T15:41:42.324Z,21.00
2019-05-18T15:44:11.048Z,21.00
2019-05-18T15:46:39.891Z,21.10
2019-05-18T15:49:09.350Z,21.20
2019-05-18T15:51:38.092Z,21.20
2019-05-18T15:54:06.900Z,21.20
2019-05-18T15:56:35.641Z,21.20
2019-05-18T15:59:04.518Z,21.10
2019-05-18T16:01:33.336Z,21.10
2019-05-18T16:04:02.115Z,21.10
2019-05-18T16:06:31.224Z,21.10
2019-05-18T16:09:00.233Z,21.10
2019-05-18T16:11:29.091Z,21.10
2019-05-18T16:13:57.836Z,21.10
2019-05-18T16:16:26.783Z,21.10
2019-05-18T16:18:55.510Z,21.20
2019-05-18T16:21:24.519Z,21.20
2019-05-18T16:23:53.281Z,21.20
2019-05-18T16:26:22.196Z,21.20
2019-05-18T16:28:50.917Z,21.20
2019-05-18T16:31:19.649Z,21.20
2019-05-18T16:33:48.610Z,21.20
2019-05-18T16:36:17.382Z,21.10
2019-05-18T16:38:46.114Z,21.20
2019-05-18T16:41:14.923Z,21.10
2019-05-18T16:43:43.730Z,21.20
2019-05-18T16:46:12.481Z,21.20
2019-05-18T16:48:42.060Z,21.10
2019-05-18T16:51:10.936Z,21.20
2019-05-18T16:53:39.752Z,21.20
2019-05-18T16:56:08.477Z,21.10
2019-05-18T16:58:37.449Z,21.00
2019-05-18T17:01:06.341Z,20.80
2019-05-18T17:03:35.135Z,20.80
2019-05-18T17:06:03.945Z,20.60
2019-05-18T17:08:32.996Z,20.60
2019-05-18T17:11:01.705Z,20.50
2019-05-18T17:13:30.436Z,20.30
2019-05-18T17:15:59.173Z,20.20
2019-05-18T17:18:28.398Z,20.10
2019-05-18T17:20:57.387Z,20.10
2019-05-18T17:23:26.381Z,20.10
2019-05-18T17:25:55.114Z,20.10
2019-05-18T17:28:23.846Z,20.00
2019-05-18T17:30:52.570Z,20.00
2019-05-18T17:33:21.456Z,19.90
2019-05-18T17:35:59.783Z,19.80
2019-05-18T17:38:20.684Z,19.90
2019-05-18T17:40:49.411Z,19.90
2019-05-18T17:43:18.316Z,20.00
2019-05-18T17:45:47.062Z,20.00
2019-05-18T17:48:15.809Z,19.90
2019-05-18T17:50:44.645Z,19.80
2019-05-18T17:53:13.463Z,19.60
2019-05-18T17:55:42.429Z,19.30
2019-05-18T17:58:11.217Z,19.20
2019-05-18T18:00:40.216Z,19.20
2019-05-18T18:03:09.277Z,19.10
2019-05-18T18:05:38.023Z,19.10
2019-05-18T18:08:06.757Z,19.20
2019-05-18T18:10:36.063Z,19.20
2019-05-18T18:13:04.881Z,19.30
2019-05-18T18:15:33.745Z,19.30
2019-05-18T18:18:02.476Z,19.20
2019-05-18T18:20:31.186Z,18.70
2019-05-18T18:22:59.904Z,18.30
2019-05-18T18:25:28.643Z,18.20
2019-05-18T18:27:57.596Z,18.00
2019-05-18T18:30:26.444Z,18.00
2019-05-18T18:32:55.494Z,18.00
2019-05-18T18:35:24.220Z,18.00
2019-05-18T18:37:52.959Z,17.90
2019-05-18T18:40:21.809Z,17.90
2019-05-18T18:42:50.871Z,17.80
2019-05-18T18:45:21.217Z,17.80
2019-05-18T18:47:49.952Z,17.80
2019-05-18T18:50:18.941Z,17.80
2019-05-18T18:52:47.976Z,17.70
2019-05-18T18:55:16.765Z,17.60
2019-05-18T18:57:45.750Z,17.60
2019-05-18T19:00:15.079Z,17.60
2019-05-18T19:02:44.044Z,17.60
2019-05-18T19:05:13.338Z,17.70
2019-05-18T19:07:42.366Z,17.70
2019-05-18T19:10:11.561Z,17.80
2019-05-18T19:12:40.358Z,17.90
2019-05-18T19:15:10.139Z,17.90
2019-05-18T19:17:39.045Z,17.80
2019-05-18T19:20:08.218Z,17.80
2019-05-18T19:22:36.932Z,17.70
2019-05-18T19:25:06.140Z,17.80
2019-05-18T19:27:34.863Z,17.80
2019-05-18T19:30:03.914Z,17.70
2019-05-18T19:32:33.072Z,17.80
2019-05-18T19:35:01.828Z,17.70
2019-05-18T19:37:30.594Z,17.70
2019-05-18T19:39:59.564Z,17.70
2019-05-18T19:42:28.778Z,17.70
2019-05-18T19:44:57.508Z,17.90
2019-05-18T19:47:26.232Z,17.90
2019-05-18T19:49:55.201Z,17.80
2019-05-18T19:52:23.933Z,17.80
2019-05-18T19:54:52.659Z,17.80
2019-05-18T19:57:21.387Z,17.70
2019-05-18T19:59:50.130Z,17.70
2019-05-18T20:02:18.862Z,17.70
2019-05-18T20:05:05.885Z,17.60
2019-05-18T20:07:18.322Z,17.60
2019-05-18T20:09:47.061Z,17.70
2019-05-18T20:12:15.803Z,17.80
2019-05-18T20:14:44.537Z,17.70
2019-05-18T20:17:13.291Z,17.70
2019-05-18T20:19:42.338Z,17.60
2019-05-18T20:22:11.295Z,17.40
2019-05-18T20:24:40.271Z,17.40
2019-05-18T20:27:09.017Z,17.30
2019-05-18T20:29:38.017Z,17.40
2019-05-18T20:32:06.755Z,17.50
2019-05-18T20:34:35.529Z,17.40
2019-05-18T20:37:04.319Z,17.30
2019-05-18T20:39:33.044Z,17.40
2019-05-18T20:42:02.024Z,17.40
2019-05-18T20:44:30.796Z,17.20
2019-05-18T20:46:59.534Z,17.20
2019-05-18T20:49:28.291Z,17.30
2019-05-18T20:52:01.545Z,17.30
2019-05-18T20:54:30.295Z,17.30
2019-05-18T20:56:59.261Z,17.20
2019-05-18T20:59:27.984Z,17.10
2019-05-18T21:01:56.741Z,17.00
2019-05-18T21:04:25.477Z,16.90
2019-05-18T21:06:54.226Z,16.90
2019-05-18T21:09:22.965Z,16.90
2019-05-18T21:11:51.712Z,17.00
2019-05-18T21:14:20.696Z,17.00
2019-05-18T21:16:49.660Z,17.00
2019-05-18T21:19:18.456Z,17.00
2019-05-18T21:21:47.408Z,17.00
2019-05-18T21:24:16.128Z,17.00
2019-05-18T21:26:44.861Z,17.10
2019-05-18T21:29:13.605Z,17.20
2019-05-18T21:31:42.395Z,17.10
2019-05-18T21:34:12.452Z,17.00
2019-05-18T21:36:41.191Z,17.00
2019-05-18T21:39:09.915Z,17.00
2019-05-18T21:41:38.647Z,16.80
2019-05-18T21:44:07.446Z,16.60
2019-05-18T21:46:38.940Z,16.30
2019-05-18T21:49:06.603Z,16.20
2019-05-18T21:51:35.318Z,16.00
2019-05-18T21:54:04.408Z,16.20
2019-05-18T21:56:33.196Z,16.30
2019-05-18T21:59:11.300Z,16.40
2019-05-18T22:01:32.680Z,16.40
2019-05-18T22:04:01.500Z,16.40
2019-05-18T22:06:30.237Z,16.40
2019-05-18T22:08:58.984Z,16.40
2019-05-18T22:11:27.714Z,16.30
2019-05-18T22:13:56.441Z,16.20
2019-05-18T22:16:25.172Z,16.20
2019-05-18T22:18:53.883Z,15.90
2019-05-18T22:21:22.622Z,15.80
2019-05-18T22:23:51.360Z,15.70
2019-05-18T22:26:20.166Z,15.50
2019-05-18T22:28:48.909Z,15.70
2019-05-18T22:31:19.624Z,15.90
2019-05-18T22:33:48.151Z,15.90
2019-05-18T22:36:16.970Z,16.10
2019-05-18T22:38:45.956Z,16.20
2019-05-18T22:41:14.751Z,16.20
2019-05-18T22:43:43.560Z,16.30
2019-05-18T22:46:12.552Z,16.40
2019-05-18T22:48:41.909Z,16.30
2019-05-18T22:51:10.806Z,16.30
2019-05-18T22:53:39.538Z,16.30
2019-05-18T22:56:08.507Z,16.30
2019-05-18T22:58:37.255Z,16.30
2019-05-18T23:01:06.216Z,16.30
2019-05-18T23:03:34.951Z,16.40
2019-05-18T23:06:03.688Z,16.40
2019-05-18T23:08:32.657Z,16.40
2019-05-18T23:11:01.390Z,16.40
2019-05-18T23:13:30.599Z,16.40
2019-05-18T23:15:59.598Z,16.40
2019-05-18T23:18:28.322Z,16.40
2019-05-18T23:20:57.284Z,16.40
2019-05-18T23:23:26.263Z,16.40
2019-05-18T23:25:54.987Z,16.40
2019-05-18T23:28:23.940Z,16.40
2019-05-18T23:30:52.917Z,16.40
2019-05-18T23:33:21.632Z,16.40
2019-05-18T23:35:50.399Z,16.40
2019-05-18T23:38:19.124Z,16.40
2019-05-18T23:40:47.859Z,16.40
2019-05-18T23:43:16.844Z,16.50
2019-05-18T23:45:45.571Z,16.50
2019-05-18T23:48:14.314Z,16.40
2019-05-18T23:50:43.051Z,16.40
2019-05-18T23:53:11.838Z,16.40
2019-05-18T23:55:40.865Z,16.40
2019-05-18T23:58:09.655Z,16.40
